Schedule Details

Flight Number: ASX457
Departure: Mashad International Airport (OIMM) at 17:40
Arrival: Kathmandu (VNKT) at 22:30
Route: CHARN N636 PAROD P628 RK G452 CHI V10 ALI R460 LKN G598 SMR

Weather Information
OIMM 251930Z 29004KT 2500 BR SCT020 OVC100 12/12 Q1006 A2973
VNKT 251850Z VRB02KT 7000 FEW015 BKN100 14/05 Q1018 NOSIG

Schedule Frequency

Route Map